Terminal Aerodrome Forecast
Issued by NWS

Home | Current Version | Previous Version | Text Only | Print | Product List | Glossary On
Versions: 1 2 3 4 5 6 7 8 9 10 11 12 13 14 15 16 17
000
FTUS41 KCAR 290700 AAA
TAFHUL
TAF AMD
KHUL 290717Z 2907/3006 15010KT 5SM BR OVC006
      TEMPO 2907/2911 2SM BR OVC002
     FM291200 20009KT P6SM BKN008
     FM291400 21009KT P6SM BKN015
     FM291700 25008KT P6SM BKN040
     FM292100 25006KT P6SM SCT090
     FM300300 00000KT P6SM FEW250=

USA.gov is the U.S. government's official web portal to all federal, state and local government web resources and services.